Flight Track Log - Related Links

Times and Time Zones

All times are in EDT time to prevent confusion due to time zone crossing. See the WIG7413 flight status page for this flight to view local times or setup timezone preferences in your user account.

Time Position Orientation Groundspeed Altitude Reporting Facility
EDT Latitude Longitude Course Direction KTS MPH feet Rate Location/Type
Thu 10:09:17 PM 42.7422 -73.8058 197° South 67 77 1,100  Level Boston Center
Thu 10:10:05 PM 42.7306 -73.8106 197° South 57 66 2,200 1,111 Climbing Boston Center
Thu 10:11:05 PM 42.7153 -73.8231 211° Southwest 70 81 3,100 952 Climbing Boston Center
Thu 10:11:08 PM 42.7156 -73.8233 324° Northwest 65 75 3,200 1,279 Climbing Boston Center
Thu 10:12:06 PM 42.6956 -73.8367 206° Southwest 87 100 4,400 1,180 Climbing Boston Center
Thu 10:12:09 PM 42.6950 -73.8372 216° Southwest 81 93 4,400 1,300 Level Boston Center
Thu 10:13:06 PM 42.6739 -73.8497 204° Southwest 80 92 5,700 1,200 Climbing Boston Center
Thu 10:13:09 PM 42.6750 -73.8497 360° North 78 90 5,600 844 Descending Boston Center
Thu 10:14:10 PM 42.6572 -73.8636 210° Southwest 74 85 6,600 1,125 Climbing Boston Center
Thu 10:14:13 PM 42.6536 -73.8661 207° Southwest 73 84 6,800 984 Climbing Boston Center
Thu 10:15:11 PM 42.6378 -73.8783 210° Southwest 73 84 7,600 885 Climbing Boston Center
Thu 10:15:14 PM 42.6367 -73.8778 160° South 73 84 7,700 393 Climbing Boston Center
Thu 10:16:12 PM 42.6178 -73.8944 213° Southwest 81 93 8,000 393 Climbing Boston Center
Thu 10:16:15 PM 42.6164 -73.8942 172° South 84 97 8,100  Climbing Boston Center
Thu 10:17:14 PM 42.5911 -73.9147 211° Southwest 105 121 8,000 -100 Descending Boston Center
Thu 10:18:15 PM 42.5664 -73.9322 208° Southwest 105 121 7,900 -50 Descending Boston Center
Thu 10:19:15 PM 42.5414 -73.9511 209° Southwest 102 117 7,900  Level Boston Center
Thu 10:20:16 PM 42.5175 -73.9681 208° Southwest 97 112 7,900 49 Level Boston Center
Thu 10:21:17 PM 42.4944 -73.9869 211° Southwest 97 112 8,000  Climbing Boston Center
Thu 10:22:18 PM 42.4653 -74.0094 210° Southwest 109 125 7,900  Descending Boston Center
Thu 10:23:18 PM 42.4392 -74.0281 208° Southwest 108 124 8,000  Climbing Boston Center
Thu 10:24:20 PM 42.4139 -74.0475 210° Southwest 106 122 7,900  Descending Boston Center
Thu 10:25:20 PM 42.3922 -74.0642 210° Southwest 92 106 8,000 50 Climbing Boston Center
Thu 10:26:21 PM 42.3664 -74.0842 210° Southwest 105 121 8,000 -50 Level Boston Center
Thu 10:27:20 PM 42.3386 -74.1061 210° Southwest 114 131 7,900 -50 Descending Boston Center
Thu 10:28:22 PM 42.3106 -74.1250 206° Southwest 107 123 7,900 48 Level Boston Center
Thu 10:29:24 PM 42.2886 -74.1406 208° Southwest 92 106 8,000 50 Climbing Boston Center
Thu 10:30:22 PM 42.2647 -74.1581 208° Southwest 96 110 8,000 -50 Level Boston Center
Thu 10:31:24 PM 42.2406 -74.1756 208° Southwest 98 113 7,900  Descending Boston Center
Thu 10:32:26 PM 42.2150 -74.1939 208° Southwest 98 113 8,000  Climbing Boston Center
Thu 10:33:27 PM 42.1864 -74.2086 201° Southwest 108 124 7,900  Descending Boston Center
Thu 10:34:27 PM 42.1647 -74.2181 198° South 81 93 8,000 50 Climbing Boston Center
Thu 10:35:27 PM 42.1403 -74.2308 201° Southwest 95 109 8,000  Level Boston Center
Thu 10:36:29 PM 42.1128 -74.2456 202° Southwest 105 121 8,000  Level Boston Center
Thu 10:37:29 PM 42.0839 -74.2600 200° South 110 127 8,000 50 Level Boston Center
Thu 10:38:30 PM 42.0567 -74.2722 198° South 104 120 8,100 -246 Climbing Boston Center
Thu 10:39:31 PM 42.0256 -74.2900 203° Southwest 114 131 7,500 -496 Descending Boston Center
Thu 10:40:31 PM 41.9944 -74.3053 200° South 119 137 7,100 -248 Descending Boston Center
Thu 10:41:32 PM 41.9650 -74.3186 199° South 112 129 7,000  Descending Boston Center
Thu 10:42:32 PM 41.9378 -74.3308 198° South 104 120 7,100 50 Climbing Boston Center
Thu 10:43:33 PM 41.9122 -74.3444 202° Southwest 101 116 7,100 -49 Level Boston Center
Thu 10:44:34 PM 41.8864 -74.3575 201° Southwest 100 115 7,000  Descending Boston Center
Thu 10:45:34 PM 41.8572 -74.3719 200° South 103 119 7,100 50 Climbing Boston Center
Thu 10:46:35 PM 41.8322 -74.3842 200° South 98 113 7,100 -49 Level Boston Center
Thu 10:47:36 PM 41.8053 -74.3975 200° South 101 116 7,000 -49 Descending Boston Center
Thu 10:48:38 PM 41.7783 -74.4094 198° South 103 119 7,000 49 Level Boston Center
Thu 10:49:39 PM 41.7508 -74.4231 200° South 105 121 7,100 49 Climbing Boston Center
Thu 10:50:40 PM 41.7225 -74.4356 198° South 108 124 7,100  Level Boston Center
Thu 10:51:40 PM 41.6939 -74.4494 200° South 109 125 7,100  Level Boston Center
Thu 10:52:40 PM 41.6631 -74.4653 201° Southwest 111 128 7,100 -50 Level Boston Center
Thu 10:53:41 PM 41.6336 -74.4792 199° South 112 129 7,000  Descending Boston Center
Thu 10:54:40 PM 41.6042 -74.4933 200° South 113 130 7,100  Climbing Boston Center
Thu 10:55:40 PM 41.5753 -74.5097 203° Southwest 113 130 7,000  Descending Boston Center
Thu 10:56:42 PM 41.5464 -74.5233 199° South 111 128 7,100 48 Climbing Boston Center
Thu 10:57:44 PM 41.5175 -74.5372 200° South 111 128 7,100 -295 Level Boston Center
Thu 10:58:44 PM 41.4864 -74.5544 203° Southwest 121 139 6,500 -496 Descending Boston Center
Thu 10:59:45 PM 41.4514 -74.5733 202° Southwest 126 145 6,100 -246 Descending Boston Center
Thu 11:00:46 PM 41.4200 -74.5867 198° South 120 138 6,000 -50 Descending Boston Center
Thu 11:01:46 PM 41.3881 -74.6000 197° South 120 138 6,000  Level Boston Center
Thu 11:02:46 PM 41.3544 -74.5911 169° South 148 170 6,000  Level Boston Center
Thu 11:03:45 PM 41.3206 -74.5528 140° Southeast 161 185 6,000 -101 Level Boston Center
Thu 11:04:45 PM 41.2864 -74.5156 141° Southeast 161 185 5,800 -393 Descending Boston Center
Thu 11:05:47 PM 41.2483 -74.4783 144° Southeast 169 194 5,200 -585 Descending Boston Center
Thu 11:06:48 PM 41.2122 -74.4400 141° Southeast 167 192 4,600 -537 Descending Boston Center
Thu 11:07:50 PM 41.1747 -74.4000 141° Southeast 160 184 4,100 -246 Descending Boston Center
Thu 11:08:50 PM 41.1419 -74.3661 142° Southeast 151 174 4,100  Level Boston Center
Thu 11:09:49 PM 41.1108 -74.3333 142° Southeast 145 167 4,100  Level Boston Center
Thu 11:10:52 PM 41.0792 -74.3014 143° Southeast 143 165 4,100  Level Boston Center
Thu 11:11:50 PM 41.0469 -74.2678 142° Southeast 145 167 4,100  Level Boston Center
Thu 11:12:51 PM 41.0153 -74.2347 142° Southeast 145 167 4,100 -50 Level Boston Center
Thu 11:13:51 PM 40.9803 -74.2006 144° Southeast 148 170 4,000  Descending Boston Center
Thu 11:14:54 PM 40.9481 -74.1658 141° Southeast 149 171 4,100  Climbing Boston Center
Thu 11:15:54 PM 40.9286 -74.1086 114° Southeast 182 209 4,000 -303 Descending Boston Center
Thu 11:16:53 PM 40.9164 -74.0436 104° East 184 212 3,500 -409 Descending Boston Center
Thu 11:18:06 PM 40.8667 -74.0500 186° South 120 138 3,100 -135 Descending New York TRACON
Thu 11:19:06 PM 40.8500 -74.0667 217° Southwest 120 138 3,200 -250 Climbing New York TRACON
Thu 11:20:06 PM 40.8167 -74.0833 201° Southwest 130 150 2,600 -650 Descending New York TRACON
Thu 11:21:06 PM 40.7833 -74.1000 201° Southwest 127 146 1,900 -684 Descending New York TRACON
Thu 11:22:00 PM 40.7500 -74.1333 217° Southwest 139 160 1,300 -737 Descending New York TRACON
Thu 11:23:00 PM 40.7167 -74.1500 201° Southwest 149 171 500 -800 Descending New York TRACON
Thu 11:24:00 PM 40.6925 -74.1687 192° South  Level Estimated
Thu 11:31:00 PM 40.6925 -74.1687 192° South  Level Estimated
Thu 11:32:00 PM 40.6925 -74.1687 192° South  Level Estimated

Login

Don't have an account? Register now (free) for customized features, flight alerts, and more!